S32

Cooperstown Municipal Airport

Cooperstown, North Dakota, USA
METAR KS32 191055Z AUTO 36010G18KT 10SM CLR M17/M20 A3014 RMK AO2
Observed Flight Rules
Feb-19 @ 10:55 UTC (21 minutes ago) Visual Flight Rules
Wind Visibility Clouds
360° at 10 knots
 Gusting to 18 knots
10 miles
  • Clear skies
Temperatures Readings
Current -17°C / 1°F
Dewpoint -20°C / -4°F
Humidity 78%
Altimeter 30.14" Hg
Pressure 1021 hPa
Elevation 684
METAR KS32 191055Z AUTO 36010G18KT 10SM CLR M17/M20 A3014 RMK AO2
Observed Flight Rules
Feb-19 @ 10:55 UTC
(21 minutes ago)
VFR
Wind Visibility
360° at 10 knots
 Gusting to 18 knots
10 miles
Clouds
  • Clear skies
Temperature Dewpoint
-17°C / 1°F -20°C / -4°F
Humidity Altimeter Pressure
78% 30.14" Hg 1021 hPa